Latest Weather Observations for Casterton

IDV60801

Issued at 8:05 am EST Wednesday 1 October 2014 (issued every 30 minutes, with the page automatically refreshed every 10 minutes)

About weather observations | Map of weather stations | Latest weather observations for VIC | Other Formats
Station Details ID: 090182 Name: CASTERTON Lat: -37.58 Lon: 141.33 Height: 130.6 m
Data from the previous 72 hours. | See also: Recent months at Casterton
Date/Time
EST
Temp
°C
App
Temp
°C
Dew
Point
Rel
Hum
%
Delta-T
°C
Wind Press
QNH
hPa
Press
MSL
hPa
Rain
since 9 am
mm
Dir
 
Spd
km/h
Gust
km/h
Spd
kts
Gust
kts
01/08:00am 8.0 5.4 7.7 98 0.1 W 11 17 6 9 1024.3 - 7.4
01/07:30am 6.5 3.9 6.2 98 0.1 W 9 13 5 7 1023.8 - 7.4
01/07:00am 5.7 3.0 5.4 98 0.1 W 9 15 5 8 1023.4 - 7.4
01/06:30am 4.0 0.9 3.7 98 0.1 WNW 9 13 5 7 1023.0 - 7.4
01/06:00am 4.3 1.3 4.0 98 0.1 WNW 9 11 5 6 1022.3 1022.3 7.4
01/05:30am 4.7 1.8 4.4 98 0.1 WNW 9 11 5 6 1021.8 - 7.4
01/05:00am 4.5 2.1 4.2 98 0.1 W 6 9 3 5 1021.5 - 7.4
01/04:30am 5.5 1.9 5.1 97 0.2 WSW 13 17 7 9 1021.1 - 7.4
01/04:00am 5.1 2.2 4.8 98 0.1 W 9 13 5 7 1020.7 - 7.4
01/03:30am 4.1 1.0 3.8 98 0.1 W 9 13 5 7 1020.7 - 7.4
01/03:00am 4.8 1.1 4.4 97 0.2 WSW 13 17 7 9 1020.5 1020.5 7.4
01/02:30am 4.7 1.4 4.3 97 0.2 W 11 15 6 8 1020.1 - 7.4
01/02:00am 3.6 0.1 3.3 98 0.1 W 11 13 6 7 1019.8 - 7.4
01/01:30am 3.8 0.3 3.4 97 0.2 W 11 13 6 7 1019.8 - 7.4
01/01:00am 5.3 1.5 4.1 92 0.5 WSW 13 19 7 10 1019.5 - 7.4
01/12:30am 4.6 0.5 4.2 97 0.2 W 15 20 8 11 1019.3 - 7.4
01/12:00am 5.3 1.2 4.1 92 0.5 W 15 20 8 11 1019.0 1019.1 7.2
 
Date/Time
EST
Temp
°C
App
Temp
°C
Dew
Point
Rel
Hum
%
Delta-T
°C
Wind Press
QNH
hPa
Press
MSL
hPa
Rain
since 9 am
mm
Dir
 
Spd
km/h
Gust
km/h
Spd
kts
Gust
kts
30/11:30pm 4.9 0.8 4.5 97 0.2 W 15 20 8 11 1018.4 - 7.2
30/11:00pm 5.4 1.4 5.1 98 0.1 W 15 19 8 10 1018.1 - 7.2
30/10:30pm 5.8 1.5 5.4 97 0.2 W 17 24 9 13 1017.8 - 7.2
30/10:00pm 5.6 2.1 5.3 98 0.1 WNW 13 19 7 10 1017.3 - 7.2
30/09:30pm 5.8 2.3 5.5 98 0.1 WNW 13 17 7 9 1017.0 - 7.2
30/09:00pm 5.2 2.0 4.9 98 0.1 WNW 11 15 6 8 1016.6 1016.7 7.2
30/08:30pm 5.3 2.1 5.0 98 0.1 WNW 11 15 6 8 1016.1 - 7.2
30/08:00pm 5.1 1.5 4.8 98 0.1 WNW 13 17 7 9 1015.7 - 7.2
30/07:30pm 5.8 1.9 5.5 98 0.1 WNW 15 20 8 11 1015.3 - 7.2
30/07:00pm 6.1 1.9 5.8 98 0.1 W 17 24 9 13 1014.8 - 7.2
30/06:30pm 6.6 0.2 5.4 92 0.5 WSW 28 46 15 25 1014.4 - 6.6
30/06:06pm 7.2 -0.6 6.8 97 0.2 WSW 37 56 20 30 1013.7 - 5.6
30/06:00pm 7.9 -0.6 5.2 83 1.2 WSW 39 63 21 34 1013.9 1014.0 5.2
30/05:56pm 8.8 0.0 3.8 71 2.2 SW 39 63 21 34 1013.4 - 4.8
30/05:31pm 11.1 3.4 3.4 59 3.4 W 33 54 18 29 1012.7 - 4.6
30/05:30pm 11.0 3.5 3.3 59 3.4 W 32 46 17 25 1012.8 - 4.6
30/05:00pm 11.4 3.4 3.7 59 3.4 W 35 56 19 30 1011.9 - 4.6
30/04:30pm 13.0 6.3 5.7 61 3.5 W 30 48 16 26 1011.4 - 4.6
30/04:00pm 12.0 4.5 6.5 69 2.6 WSW 35 54 19 29 1011.0 - 4.6
30/03:30pm 13.1 3.5 4.5 56 4.0 WSW 44 65 24 35 1010.2 - 4.6
30/03:00pm 13.6 4.8 5.7 59 3.8 W 41 61 22 33 1009.6 1009.7 4.6
30/02:46pm 12.5 4.6 6.3 66 3.0 WSW 37 59 20 32 1009.5 - 4.6
30/02:33pm 12.2 6.5 9.9 86 1.2 W 30 48 16 26 1009.2 - 4.6
30/02:30pm 12.1 6.2 10.3 89 0.9 W 32 48 17 26 1009.1 - 4.6
30/02:00pm 11.0 4.7 9.1 88 1.0 W 32 50 17 27 1008.8 - 4.6
30/01:38pm 11.7 6.8 11.2 97 0.3 W 28 46 15 25 1008.6 - 4.2
30/01:30pm 11.7 7.6 11.4 98 0.2 W 24 33 13 18 1008.2 - 4.2
30/01:00pm 11.2 6.2 10.9 98 0.2 W 28 50 15 27 1008.0 - 4.0
30/12:30pm 12.7 6.8 12.4 98 0.2 W 35 56 19 30 1007.0 - 3.4
30/12:00pm 12.4 6.4 12.1 98 0.2 W 35 59 19 32 1006.6 1006.7 3.4
30/11:30am 13.5 8.0 12.6 94 0.5 WNW 33 59 18 32 1006.4 - 1.4
30/11:28am 14.3 9.6 13.2 93 0.6 WNW 30 50 16 27 1006.1 - 0.8
30/11:08am 17.3 10.3 11.1 67 3.4 NW 39 57 21 31 1005.3 - 0.0
30/11:00am 17.4 10.3 12.3 72 2.8 NW 41 52 22 28 1005.5 - 0.0
30/10:30am 16.6 8.3 11.3 71 2.9 NW 46 70 25 38 1006.2 - 0.0
30/10:10am 15.7 8.2 10.7 72 2.7 NW 41 59 22 32 1006.4 - 0.0
30/10:00am 15.5 7.4 10.1 70 2.8 NW 43 56 23 30 1006.5 - 0.0
30/09:30am 15.9 9.8 10.4 70 2.9 NW 33 48 18 26 1006.8 - 0.0
30/09:19am 15.8 10.1 9.7 67 3.2 NNW 30 50 16 27 1006.7 - 0.0
30/09:00am 15.5 11.0 11.3 76 2.3 NNW 26 44 14 24 1007.1 1007.2 0.2
30/08:30am 14.2 9.2 11.0 81 1.7 NNW 28 43 15 23 1007.3 - 0.2
30/08:00am 14.1 10.0 11.6 85 1.3 NNW 24 39 13 21 1007.3 - 0.2
30/07:30am 12.8 9.5 11.7 93 0.6 NNW 20 28 11 15 1007.3 - 0.2
30/07:00am 12.8 9.3 12.3 97 0.3 NNW 22 33 12 18 1007.6 - 0.2
30/06:30am 12.2 9.0 11.9 98 0.2 NNW 20 28 11 15 1007.7 - 0.2
30/06:00am 11.8 8.7 11.5 98 0.2 N 19 28 10 15 1007.7 1007.8 0.2
30/05:30am 11.5 7.7 11.2 98 0.2 N 22 30 12 16 1007.8 - 0.2
30/05:00am 11.1 7.8 10.8 98 0.2 N 19 24 10 13 1008.2 - 0.2
30/04:30am 11.1 7.6 10.8 98 0.2 N 20 28 11 15 1008.2 - 0.2
30/04:00am 11.2 7.9 10.9 98 0.2 NNW 19 26 10 14 1008.5 - 0.2
30/03:30am 11.3 8.0 11.0 98 0.2 NNW 19 32 10 17 1008.8 - 0.2
30/03:00am 11.4 8.0 11.1 98 0.2 NNW 20 30 11 16 1009.0 1009.1 0.2
30/02:30am 11.0 8.0 10.7 98 0.2 NNW 17 26 9 14 1009.3 - 0.2
30/02:00am 10.6 7.1 10.3 98 0.2 N 19 24 10 13 1009.8 - 0.2
30/01:30am 10.2 7.0 9.9 98 0.2 NNW 17 20 9 11 1010.3 - 0.2
30/01:00am 9.4 6.7 9.1 98 0.1 N 13 17 7 9 1010.3 - 0.2
30/12:30am 10.4 7.6 10.1 98 0.2 N 15 20 8 11 1010.7 - 0.2
30/12:00am 10.9 9.0 10.6 98 0.2 N 11 15 6 8 1011.1 1011.2 0.2
 
Date/Time
EST
Temp
°C
App
Temp
°C
Dew
Point
Rel
Hum
%
Delta-T
°C
Wind Press
QNH
hPa
Press
MSL
hPa
Rain
since 9 am
mm
Dir
 
Spd
km/h
Gust
km/h
Spd
kts
Gust
kts
29/11:30pm 10.7 8.8 10.4 98 0.2 NNW 11 13 6 7 1011.4 - 0.2
29/11:00pm 9.3 6.6 8.8 97 0.2 NW 13 15 7 8 1011.5 - 0.2
29/10:30pm 9.3 6.8 8.4 94 0.4 NW 11 13 6 7 1011.7 - 0.2
29/10:00pm 9.7 7.2 8.3 91 0.7 NW 11 11 6 6 1011.8 - 0.2
29/09:30pm 10.2 8.1 8.3 88 0.9 NNW 9 11 5 6 1011.8 - 0.2
29/09:00pm 11.1 9.0 8.3 83 1.4 NNW 9 13 5 7 1012.1 1012.2 0.2
29/08:30pm 11.3 8.4 8.3 82 1.5 NW 13 19 7 10 1012.0 - 0.2
29/08:00pm 12.0 9.1 8.1 77 1.9 NW 13 20 7 11 1011.9 - 0.2
29/07:30pm 13.4 10.2 8.5 72 2.5 WNW 15 20 8 11 1011.6 - 0.2
29/07:00pm 14.0 10.5 8.6 70 2.7 WNW 17 24 9 13 1011.5 - 0.2
29/06:30pm 14.6 10.7 8.5 67 3.1 WNW 19 28 10 15 1011.3 - 0.2
29/06:00pm 15.5 11.0 8.5 63 3.6 NW 22 30 12 16 1011.1 1011.2 0.2
29/05:36pm 16.6 10.9 8.3 58 4.2 WNW 28 46 15 25 1010.9 - 0.2
29/05:30pm 16.7 11.4 8.4 58 4.3 NW 26 46 14 25 1010.8 - 0.2
29/05:00pm 17.6 11.7 7.6 52 5.1 WNW 28 41 15 22 1010.6 - 0.2
29/04:30pm 18.6 13.3 8.6 52 5.2 NW 26 41 14 22 1010.4 - 0.2
29/04:00pm 19.0 13.7 8.4 50 5.5 NNW 26 39 14 21 1010.3 - 0.2
29/03:30pm 19.6 15.2 8.9 50 5.6 NW 22 33 12 18 1010.4 - 0.2
29/03:00pm 19.1 12.6 6.6 44 6.3 NW 30 46 16 25 1010.9 1011.0 0.2
29/02:59pm 19.4 13.5 7.5 46 6.1 NW 28 46 15 25 1010.9 - 0.2
29/02:30pm 19.5 14.5 9.4 52 5.4 NNW 26 37 14 20 1011.2 - 0.2
29/02:24pm 19.0 12.7 8.9 52 5.3 NNW 32 50 17 27 1011.2 - 0.2
29/02:00pm 19.1 12.9 9.3 53 5.2 NW 32 44 17 24 1011.4 - 0.2
29/01:30pm 18.6 13.6 8.0 50 5.5 NNW 24 39 13 21 1011.5 - 0.2
29/01:00pm 18.2 13.0 8.7 54 5.0 NNW 26 41 14 22 1011.9 - 0.2
29/12:30pm 17.9 13.1 9.0 56 4.7 NNW 24 35 13 19 1012.2 - 0.2
29/12:00pm 17.0 12.8 8.4 57 4.4 NW 20 30 11 16 1012.5 1012.5 0.2
29/11:30am 17.3 14.4 12.2 72 2.8 W 19 26 10 14 1012.7 - 0.2
29/11:00am 16.1 11.5 9.5 65 3.4 NW 24 37 13 20 1012.7 - 0.0
29/10:30am 15.7 10.9 8.9 64 3.5 NW 24 33 13 18 1012.9 - 0.0
29/10:00am 14.2 10.3 9.4 73 2.5 W 20 32 11 17 1013.3 - 0.0
29/09:30am 13.9 9.8 10.1 78 2.0 WNW 22 35 12 19 1013.6 - 0.0
29/09:00am 13.9 11.1 11.2 84 1.4 WNW 17 28 9 15 1013.5 1013.6 0.2
29/08:30am 12.9 10.4 12.3 96 0.3 NW 17 20 9 11 1013.1 - 0.2
29/08:00am 11.9 9.9 11.6 98 0.2 NNW 13 19 7 10 1012.8 - 0.2
29/07:30am 10.9 8.3 10.6 98 0.2 NW 15 20 8 11 1012.7 - 0.2
29/07:00am 10.0 8.3 9.9 99 0.1 NNW 9 11 5 6 1012.7 - 0.2
29/06:30am 8.7 6.7 8.6 99 0.0 NW 9 13 5 7 1012.1 - 0.2
29/06:00am 8.6 6.1 8.3 98 0.1 NW 11 13 6 7 1011.8 1011.9 0.2
29/05:30am 10.0 7.9 9.7 98 0.2 WNW 11 15 6 8 1011.4 - 0.2
29/05:00am 10.3 7.9 10.0 98 0.2 WNW 13 19 7 10 1011.3 - 0.2
29/04:30am 10.4 8.0 10.1 98 0.2 W 13 19 7 10 1010.8 - 0.2
29/04:00am 11.1 8.1 10.8 98 0.2 W 17 24 9 13 1010.6 - 0.2
29/03:30am 11.7 9.3 11.4 98 0.2 W 15 20 8 11 1010.4 - 0.2
29/03:00am 11.7 9.7 11.4 98 0.2 W 13 22 7 12 1010.2 1010.3 0.2
29/02:30am 11.7 8.9 11.4 98 0.2 W 17 22 9 12 1010.1 - 0.0
29/02:00am 11.8 9.4 11.5 98 0.2 W 15 22 8 12 1010.5 - 0.0
29/01:30am 11.8 9.0 11.5 98 0.2 NW 17 24 9 13 1010.1 - 0.0
29/01:00am 11.6 8.4 11.3 98 0.2 NW 19 26 10 14 1010.0 - 0.0
29/12:30am 11.4 8.2 11.1 98 0.2 NW 19 28 10 15 1009.8 - 0.0
29/12:00am 11.7 7.9 11.2 97 0.3 WNW 22 35 12 19 1009.7 1009.8 0.0
 
Date/Time
EST
Temp
°C
App
Temp
°C
Dew
Point
Rel
Hum
%
Delta-T
°C
Wind Press
QNH
hPa
Press
MSL
hPa
Rain
since 9 am
mm
Dir
 
Spd
km/h
Gust
km/h
Spd
kts
Gust
kts
28/11:30pm 11.8 8.0 11.0 95 0.4 NW 22 33 12 18 1009.4 - 0.0
28/11:00pm 12.2 7.5 10.8 91 0.7 NW 26 39 14 21 1009.4 - 0.0
28/10:30pm 11.7 7.4 10.9 95 0.4 NW 24 32 13 17 1009.0 - 0.0
28/10:00pm 11.6 8.0 10.5 93 0.6 NW 20 28 11 15 1008.9 - 0.0
28/09:30pm 11.7 8.2 10.1 90 0.8 NW 19 26 10 14 1008.6 - 0.0
28/09:00pm 12.5 8.8 10.0 85 1.3 WNW 20 28 11 15 1008.5 1008.6 0.0
28/08:30pm 12.4 9.4 9.2 81 1.6 WNW 15 24 8 13 1007.9 - 0.0
28/08:00pm 13.4 9.4 9.1 75 2.2 WNW 20 28 11 15 1007.3 - 0.0
28/07:30pm 12.6 9.8 8.5 76 2.1 WNW 13 19 7 10 1006.9 - 0.0
28/07:00pm 13.0 9.7 8.1 72 2.4 W 15 22 8 12 1006.6 - 0.0
28/06:30pm 14.6 10.0 8.1 65 3.3 W 22 35 12 19 1006.3 - 0.0
28/06:00pm 15.8 11.3 8.5 62 3.7 WSW 22 33 12 18 1005.9 1005.9 0.0
28/05:30pm 17.8 13.5 12.0 69 3.2 W 26 41 14 22 1005.1 - 0.0
28/05:00pm 19.3 13.6 11.1 59 4.5 W 32 48 17 26 1004.2 - 0.0
28/04:37pm 20.9 13.7 10.7 52 5.6 W 39 57 21 31 1003.8 - 0.0
28/04:35pm 21.3 14.1 10.5 50 5.9 W 39 57 21 31 1003.8 - 0.0
28/04:30pm 21.9 14.2 10.1 47 6.4 WNW 41 59 22 32 1003.5 - 0.0
28/04:00pm 23.9 14.3 6.2 32 9.1 NW 46 65 25 35 1002.5 - 0.0
28/03:30pm 24.1 13.7 5.9 31 9.3 WNW 50 72 27 39 1002.7 - 0.0
28/03:00pm 24.4 11.7 5.2 29 9.8 NW 61 89 33 48 1002.7 1002.8 0.0
28/02:30pm 25.3 15.1 5.0 27 10.3 NW 48 78 26 42 1003.0 - 0.0
28/02:00pm 25.0 16.2 5.7 29 9.9 NW 41 61 22 33 1003.0 - 0.0
28/01:53pm 25.3 16.9 5.5 28 10.2 NW 39 78 21 42 1003.1 - 0.0
28/01:52pm 25.3 17.6 7.0 31 9.6 NW 37 78 20 42 1003.1 - 0.0
28/01:48pm 25.5 13.1 4.6 26 10.6 NW 59 78 32 42 1002.9 - 0.0
28/01:46pm 25.3 13.2 6.0 29 10.0 NW 59 76 32 41 1002.9 - 0.0
28/01:45pm 25.5 17.2 6.2 29 10.0 NNW 39 74 21 40 1002.9 - 0.0
28/01:34pm 26.1 18.7 6.7 29 10.2 NNW 35 54 19 29 1003.1 - 0.0
28/01:30pm 25.9 18.1 6.5 29 10.2 NNW 37 54 20 29 1003.3 - 0.0
28/01:00pm 25.2 16.2 6.4 30 9.8 NW 43 69 23 37 1003.9 - 0.0
28/12:30pm 25.5 16.0 4.0 25 10.8 NNW 43 70 23 38 1004.1 - 0.0
28/12:27pm 25.0 16.5 5.2 28 10.1 NW 39 70 21 38 1004.2 - 0.0
28/12:26pm 25.0 17.8 5.7 29 9.9 NW 33 70 18 38 1004.4 - 0.0
28/12:14pm 25.2 13.5 5.4 28 10.1 NW 56 80 30 43 1004.5 - 0.0
28/12:13pm 25.2 12.5 4.9 27 10.3 NW 61 80 33 43 1004.4 - 0.0
28/12:09pm 25.8 18.0 4.9 26 10.6 NNW 35 80 19 43 1004.5 - 0.0
28/12:00pm 26.0 18.5 8.0 32 9.7 NNW 37 56 20 30 1004.7 1004.7 0.0
28/11:35am 25.5 18.5 6.7 30 9.9 NNW 33 52 18 28 1005.4 - 0.0
28/11:30am 25.2 17.8 8.2 34 9.1 NNW 37 52 20 28 1005.4 - 0.0
28/11:00am 24.3 16.0 7.9 35 8.7 N 41 63 22 34 1005.3 - 0.0
28/10:30am 23.7 16.4 7.3 35 8.6 N 35 54 19 29 1005.6 - 0.0
28/10:00am 22.8 14.8 7.4 37 8.1 N 39 69 21 37 1006.2 - 0.0
28/09:37am 22.6 14.8 6.8 36 8.2 N 37 57 20 31 1006.3 - 0.0
28/09:30am 22.5 15.2 7.1 37 8.0 N 35 50 19 27 1006.2 - 0.0
28/09:10am 23.0 14.8 8.3 39 7.8 NNW 41 61 22 33 1007.5 - 0.0
28/09:00am 22.3 13.3 6.5 36 8.1 N 43 63 23 34 1005.3 1005.3 0.0
28/08:30am 21.8 12.8 6.5 37 7.8 N 43 69 23 37 1005.6 - 0.0

Other Formats:

Comma delimited format used in spreadsheet applications
http://www.bom.gov.au/fwo/IDV60801/IDV60801.95825.axf

JavaScript Object Notation format (JSON) in row-major order
http://www.bom.gov.au/fwo/IDV60801/IDV60801.95825.json